Time;durP1;ratioP1;P1;durP2;ratioP2;P2;SDS_P1;SDS_P2;PMS_P1;PMS_P2;Temp;Humidity;BMP_temperature;BMP_pressure;BME280_temperature;BME280_humidity;BME280_pressure;Samples;Min_cycle;Max_cycle;Signal;HPM_P1;HPM_P2
2023/04/09 00:00:27;;;;;;;40.90;29.20;;;;;;;8.28;100.00;102528.94;1044090;28;20293;-74
2023/04/09 00:01:06;;;;;;;39.33;28.38;;;;;;;8.29;100.00;102527.94;1043621;28;20303;-75
2023/04/09 00:01:38;;;;;;;40.17;29.42;;;;;;;8.29;100.00;102527.09;1039634;28;20312;-75
2023/04/09 00:02:09;;;;;;;38.10;26.05;;;;;;;8.27;100.00;102529.09;1035299;28;20300;-74
2023/04/09 00:02:41;;;;;;;37.40;29.52;;;;;;;8.32;100.00;102526.78;1037394;28;20304;-74
2023/04/09 00:03:13;;;;;;;39.83;29.30;;;;;;;8.44;100.00;102524.69;1039512;28;20304;-74
2023/04/09 00:03:44;;;;;;;42.55;29.70;;;;;;;8.55;100.00;102529.72;1039763;28;20350;-74
2023/04/09 00:04:16;;;;;;;39.58;29.55;;;;;;;8.32;100.00;102529.44;1040158;28;20308;-75
2023/04/09 00:04:48;;;;;;;37.33;26.80;;;;;;;8.32;100.00;102518.81;1042243;28;20350;-75
2023/04/09 00:05:20;;;;;;;45.47;30.27;;;;;;;8.27;100.00;102531.75;1041177;28;20864;-75
2023/04/09 00:05:52;;;;;;;40.90;27.50;;;;;;;8.32;100.00;102522.31;1044035;28;20295;-76
2023/04/09 00:06:26;;;;;;;42.90;28.95;;;;;;;8.38;100.00;102520.03;1039873;28;20296;-75
2023/04/09 00:07:00;;;;;;;36.92;26.58;;;;;;;8.26;100.00;102528.25;1039327;28;20300;-75
2023/04/09 00:07:31;;;;;;;38.13;28.42;;;;;;;8.22;100.00;102526.09;1039703;28;20311;-75
2023/04/09 00:08:03;;;;;;;38.05;27.63;;;;;;;8.21;100.00;102525.22;1041447;28;20307;-75
2023/04/09 00:08:35;;;;;;;37.97;27.73;;;;;;;8.21;100.00;102519.91;1041958;28;20300;-76
2023/04/09 00:09:07;;;;;;;37.42;26.92;;;;;;;8.28;100.00;102525.44;1044158;28;20801;-75
2023/04/09 00:09:39;;;;;;;38.10;28.02;;;;;;;8.26;100.00;102528.25;1044873;28;20738;-75
2023/04/09 00:10:10;;;;;;;36.85;27.65;;;;;;;8.25;100.00;102528.41;1042132;28;20304;-75
2023/04/09 00:10:42;;;;;;;37.00;27.98;;;;;;;8.19;100.00;102521.91;1044243;28;20775;-75
2023/04/09 00:11:14;;;;;;;39.90;27.50;;;;;;;8.23;100.00;102528.59;1044243;28;20902;-75
2023/04/09 00:11:45;;;;;;;39.80;27.80;;;;;;;8.21;100.00;102530.53;1044136;28;20306;-75
2023/04/09 00:12:17;;;;;;;40.08;28.27;;;;;;;8.19;100.00;102527.22;1046876;28;20848;-75
2023/04/09 00:12:48;;;;;;;36.28;27.02;;;;;;;8.18;100.00;102525.53;1046851;28;20299;-75
2023/04/09 00:13:20;;;;;;;38.30;27.55;;;;;;;8.19;100.00;102527.22;1046214;28;20324;-75
2023/04/09 00:14:08;;;;;;;42.67;28.70;;;;;;;8.22;100.00;102524.25;1038726;28;20299;-75
2023/04/09 00:14:40;;;;;;;37.08;28.42;;;;;;;8.30;100.00;102523.47;1039798;28;20379;-75
2023/04/09 00:15:11;;;;;;;38.88;28.30;;;;;;;8.53;100.00;102523.75;1035717;28;20300;-75
2023/04/09 00:15:58;;;;;;;31.48;26.63;;;;;;;8.66;100.00;102518.78;1042398;28;20303;-76
2023/04/09 00:16:30;;;;;;;42.10;27.38;;;;;;;8.72;100.00;102512.81;1043638;28;20295;-75
2023/04/09 00:17:01;;;;;;;39.65;28.30;;;;;;;8.55;100.00;102517.28;1044437;28;20791;-75
2023/04/09 00:17:33;;;;;;;39.75;29.38;;;;;;;8.50;100.00;102514.28;1047591;28;20684;-75
2023/04/09 00:18:05;;;;;;;39.72;29.50;;;;;;;8.38;100.00;102520.03;1039878;28;20296;-75
2023/04/09 00:18:36;;;;;;;35.28;27.08;;;;;;;8.47;100.00;102516.41;1043629;28;20303;-75
2023/04/09 00:19:08;;;;;;;38.40;26.98;;;;;;;8.67;100.00;102520.44;1044485;28;20347;-75
2023/04/09 00:19:40;;;;;;;36.00;26.88;;;;;;;8.69;100.00;102513.16;1048114;28;20294;-74
2023/04/09 00:20:11;;;;;;;42.00;28.20;;;;;;;8.69;100.00;102518.47;1045262;28;20307;-75
2023/04/09 00:20:43;;;;;;;39.72;27.80;;;;;;;8.67;100.00;102509.81;1047474;28;20306;-76
2023/04/09 00:21:19;;;;;;;36.42;26.30;;;;;;;8.66;100.00;102509.00;1043961;28;20276;-75
2023/04/09 00:21:51;;;;;;;39.50;27.65;;;;;;;8.66;100.00;102516.13;1044051;28;20300;-75
2023/04/09 00:22:22;;;;;;;40.45;27.55;;;;;;;8.68;100.00;102516.78;1045108;28;20342;-75
2023/04/09 00:22:55;;;;;;;38.42;27.23;;;;;;;8.67;100.00;102520.44;1048175;28;20299;-75
2023/04/09 00:23:27;;;;;;;38.30;28.42;;;;;;;8.65;100.00;102517.13;1045887;28;20287;-75
2023/04/09 00:24:00;;;;;;;33.10;26.60;;;;;;;8.68;100.00;102511.47;1044150;28;20299;-75
2023/04/09 00:24:31;;;;;;;42.50;27.58;;;;;;;8.69;100.00;102513.16;1039634;28;20288;-75
2023/04/09 00:25:03;;;;;;;39.38;28.33;;;;;;;8.68;100.00;102512.31;1039588;28;20682;-74
2023/04/09 00:25:35;;;;;;;41.22;27.48;;;;;;;8.69;100.00;102518.47;1042893;28;20401;-75
2023/04/09 00:26:06;;;;;;;37.95;27.98;;;;;;;8.64;100.00;102512.81;1043648;28;20291;-75
2023/04/09 00:26:38;;;;;;;40.08;28.73;;;;;;;8.63;100.00;102514.63;1043900;28;20901;-75
2023/04/09 00:27:10;;;;;;;33.90;25.65;;;;;;;8.64;100.00;102516.28;1041915;28;20312;-75
2023/04/09 00:27:41;;;;;;;36.97;26.45;;;;;;;8.64;100.00;102515.47;1042162;28;20804;-75
2023/04/09 00:28:13;;;;;;;39.88;26.65;;;;;;;8.59;100.00;102515.94;1039850;28;20300;-75
2023/04/09 00:28:44;;;;;;;38.70;27.30;;;;;;;8.61;100.00;102515.78;1044113;28;20291;-74
2023/04/09 00:29:16;;;;;;;41.58;27.42;;;;;;;8.61;100.00;102515.78;1045131;28;20291;-75
2023/04/09 00:29:48;;;;;;;37.95;27.75;;;;;;;8.57;100.00;102514.47;1044893;28;20314;-75
2023/04/09 00:30:19;;;;;;;37.03;26.98;;;;;;;8.55;100.00;102511.13;1044206;28;20310;-75
2023/04/09 00:30:51;;;;;;;40.95;29.02;;;;;;;8.54;100.00;102509.47;1038993;28;20301;-75
2023/04/09 00:31:22;;;;;;;38.42;27.88;;;;;;;8.55;100.00;102517.28;1043042;28;20291;-75
2023/04/09 00:31:54;;;;;;;37.80;27.60;;;;;;;8.55;100.00;102511.13;1039665;28;20303;-74
2023/04/09 00:32:26;;;;;;;38.97;28.38;;;;;;;8.55;100.00;102511.13;1040259;28;20311;-75
2023/04/09 00:32:58;;;;;;;41.67;29.35;;;;;;;8.47;100.00;102524.38;1044072;28;20306;-75
2023/04/09 00:33:29;;;;;;;44.75;28.90;;;;;;;8.35;100.00;102516.69;1043508;28;20307;-75
2023/04/09 00:34:01;;;;;;;38.83;29.10;;;;;;;8.38;100.00;102509.41;1039799;28;20322;-75
2023/04/09 00:34:33;;;;;;;39.08;27.98;;;;;;;8.42;100.00;102510.75;1036486;28;20838;-75
2023/04/09 00:35:05;;;;;;;38.72;29.60;;;;;;;8.39;100.00;102513.72;1037180;28;20297;-76
2023/04/09 00:35:36;;;;;;;40.72;28.88;;;;;;;8.48;100.00;102504.78;1035869;28;20432;-75
2023/04/09 00:36:08;;;;;;;38.50;28.48;;;;;;;8.50;100.00;102513.44;1039980;28;20389;-75
2023/04/09 00:36:40;;;;;;;38.13;27.98;;;;;;;8.52;100.00;102506.97;1043757;28;20331;-74
2023/04/09 00:37:12;;;;;;;38.75;28.05;;;;;;;8.52;100.00;102506.16;1043517;28;20406;-75
2023/04/09 00:37:44;;;;;;;40.88;28.02;;;;;;;8.51;100.00;102509.78;1043724;28;20307;-75
2023/04/09 00:38:15;;;;;;;39.58;28.77;;;;;;;8.55;100.00;102508.47;1043796;28;20299;-75
2023/04/09 00:38:49;;;;;;;42.55;29.05;;;;;;;8.54;100.00;102505.00;1035746;28;20312;-75
2023/04/09 00:39:22;;;;;;;41.60;29.58;;;;;;;8.51;100.00;102509.78;1028887;28;20372;-75
2023/04/09 00:39:54;;;;;;;35.72;27.27;;;;;;;8.58;100.00;102505.50;1037650;28;20806;-74
2023/04/09 00:40:26;;;;;;;38.60;28.38;;;;;;;8.57;100.00;102504.66;1033409;28;20345;-75
2023/04/09 00:40:57;;;;;;;37.63;27.88;;;;;;;8.59;100.00;102510.66;1040291;28;20303;-75
2023/04/09 00:41:29;;;;;;;38.08;28.98;;;;;;;8.62;100.00;102506.81;1047261;28;20405;-75
2023/04/09 00:42:04;;;;;;;40.83;28.25;;;;;;;8.45;100.00;102505.94;1047742;28;20353;-75
2023/04/09 00:42:36;;;;;;;37.63;28.33;;;;;;;8.55;100.00;102497.84;1045386;28;20888;-75
2023/04/09 00:43:08;;;;;;;40.67;28.05;;;;;;;8.57;100.00;102503.84;1037547;28;20304;-75
2023/04/09 00:43:39;;;;;;;41.33;29.02;;;;;;;8.54;100.00;102502.34;1039348;28;20315;-74
2023/04/09 00:44:11;;;;;;;38.13;28.42;;;;;;;8.50;100.00;102502.81;1036230;28;22303;-74
2023/04/09 00:44:42;;;;;;;43.33;27.80;;;;;;;8.52;100.00;102503.50;1036307;28;20718;-74
2023/04/09 00:45:14;;;;;;;41.42;28.92;;;;;;;8.58;100.00;102500.19;1037720;28;20319;-75
2023/04/09 00:45:46;;;;;;;33.35;27.15;;;;;;;8.58;100.00;102501.00;1038695;28;20432;-75
2023/04/09 00:46:18;;;;;;;38.88;27.33;;;;;;;8.49;100.00;102506.44;1043514;28;20357;-75
2023/04/09 00:46:50;;;;;;;39.65;28.17;;;;;;;8.53;100.00;102497.19;1040056;28;20391;-74
2023/04/09 00:47:22;;;;;;;38.55;26.20;;;;;;;8.53;100.00;102502.50;1036117;28;20503;-75
2023/04/09 00:47:54;;;;;;;39.60;26.63;;;;;;;8.56;100.00;102507.47;1039669;28;20306;-74
2023/04/09 00:48:26;;;;;;;42.67;29.92;;;;;;;8.55;100.00;102503.16;1043854;28;20641;-75
2023/04/09 00:48:58;;;;;;;38.75;28.17;;;;;;;8.47;100.00;102508.44;1038114;28;20307;-75
2023/04/09 00:49:31;;;;;;;37.90;28.38;;;;;;;8.48;100.00;102500.31;1039739;28;20292;-74
2023/04/09 00:50:03;;;;;;;40.50;27.52;;;;;;;8.51;100.00;102494.69;1035617;28;20324;-75
2023/04/09 00:50:35;;;;;;;43.80;28.33;;;;;;;8.48;100.00;102502.13;1028472;28;20700;-75
2023/04/09 00:51:07;;;;;;;40.10;27.60;;;;;;;8.48;100.00;102500.31;1035319;28;20315;-75
2023/04/09 00:51:39;;;;;;;40.45;27.33;;;;;;;8.47;100.00;102497.81;1032610;28;20285;-75
2023/04/09 00:52:11;;;;;;;42.75;28.52;;;;;;;8.47;100.00;102497.81;1038805;28;20801;-75
2023/04/09 00:52:43;;;;;;;43.20;28.73;;;;;;;8.47;100.00;102497.81;1042308;28;20346;-74
2023/04/09 00:53:15;;;;;;;40.40;29.13;;;;;;;8.46;100.00;102496.16;1040269;28;20387;-74
2023/04/09 00:53:46;;;;;;;40.83;27.52;;;;;;;8.44;100.00;102506.09;1044336;28;20296;-74
2023/04/09 00:54:18;;;;;;;41.15;28.67;;;;;;;8.40;100.00;102496.81;1044269;28;20310;-74
2023/04/09 00:54:51;;;;;;;40.35;28.00;;;;;;;8.41;100.00;102501.13;1043906;28;20287;-75
2023/04/09 00:55:22;;;;;;;41.20;29.00;;;;;;;8.40;100.00;102502.09;1035254;28;20296;-75
2023/04/09 00:55:54;;;;;;;37.17;27.50;;;;;;;8.34;100.00;102492.97;1035262;28;20338;-74
2023/04/09 00:56:26;;;;;;;49.95;31.50;;;;;;;8.37;100.00;102500.59;1032060;28;20300;-74
2023/04/09 00:56:58;;;;;;;42.80;27.77;;;;;;;8.36;100.00;102491.81;1040181;28;20304;-75
2023/04/09 00:57:30;;;;;;;38.75;28.35;;;;;;;8.36;100.00;102499.78;1045881;28;20788;-75
2023/04/09 00:58:02;;;;;;;42.17;28.40;;;;;;;8.37;100.00;102497.97;1044457;28;20318;-74
2023/04/09 00:58:33;;;;;;;43.97;29.02;;;;;;;8.36;100.00;102491.81;1040664;28;20299;-74
2023/04/09 00:59:05;;;;;;;37.65;27.50;;;;;;;8.38;100.00;102493.47;1035754;28;20304;-74
2023/04/09 00:59:37;;;;;;;39.97;29.48;;;;;;;8.38;100.00;102494.31;1036030;28;20316;-75
2023/04/09 01:00:11;;;;;;;39.83;28.40;;;;;;;8.39;100.00;102492.47;1039603;28;20658;-74
2023/04/09 01:00:43;;;;;;;41.78;30.75;;;;;;;8.35;100.00;102492.81;1032046;28;20309;-75
2023/04/09 01:01:15;;;;;;;40.60;29.00;;;;;;;8.34;100.00;102492.97;1031929;28;20293;-74
2023/04/09 01:01:47;;;;;;;34.95;27.35;;;;;;;8.32;100.00;102493.09;1035628;28;20875;-75
2023/04/09 01:02:18;;;;;;;43.88;29.17;;;;;;;8.36;100.00;102496.28;1036665;28;20664;-75
2023/04/09 01:02:53;;;;;;;47.28;31.15;;;;;;;8.27;100.00;102490.09;1046691;28;20861;-75
2023/04/09 01:03:24;;;;;;;47.03;30.27;;;;;;;8.34;100.00;102485.84;1047461;28;20314;-75
2023/04/09 01:03:56;;;;;;;42.88;29.65;;;;;;;8.40;100.00;102486.19;1047726;28;20298;-75
2023/04/09 01:04:28;;;;;;;41.42;28.95;;;;;;;8.36;100.00;102494.47;1043517;28;20295;-74
2023/04/09 01:04:59;;;;;;;43.38;31.60;;;;;;;8.34;100.00;102493.81;1036346;28;20640;-74
2023/04/09 01:06:22;;;;;;;41.85;29.25;;;;;;;8.38;100.00;102488.16;1033497;28;20301;-74
2023/04/09 01:07:13;;;;;;;36.55;26.05;;;;;;;8.36;100.00;102497.13;1033835;28;20423;-76
2023/04/09 01:07:45;;;;;;;40.80;24.88;;;;;;;8.35;100.00;102490.16;1035489;28;20128;-75
2023/04/09 01:08:47;;;;;;;37.50;24.52;;;;;;;8.35;100.00;102489.31;1034711;28;20522;-75
2023/04/09 01:09:55;;;;;;;34.15;22.98;;;;;;;8.27;100.00;102487.44;1038106;28;20300;-74
2023/04/09 01:10:40;;;;;;;36.80;22.52;;;;;;;8.26;100.00;102484.97;1033345;28;20387;-75
2023/04/09 01:11:20;;;;;;;33.45;22.00;;;;;;;8.26;100.00;102484.97;1039979;28;21126;-75
2023/04/09 01:12:15;;;;;;;41.15;23.85;;;;;;;8.28;100.00;102485.63;1030881;28;20301;-75
2023/04/09 01:12:57;;;;;;;41.50;24.92;;;;;;;8.32;100.00;102477.16;1037162;28;20795;-75
2023/04/09 01:13:39;;;;;;;45.33;26.65;;;;;;;8.30;100.00;102487.13;1041546;28;20300;-74
2023/04/09 01:14:20;;;;;;;35.92;23.38;;;;;;;8.32;100.00;102485.13;1043283;28;20339;-75
2023/04/09 01:14:56;;;;;;;41.65;25.08;;;;;;;8.26;100.00;102485.78;1042702;28;20538;-74
2023/04/09 01:15:30;;;;;;;38.33;24.80;;;;;;;8.25;100.00;102489.44;1039664;28;20037;-74
2023/04/09 01:16:02;;;;;;;35.22;23.58;;;;;;;8.23;100.00;102483.47;1033649;28;20313;-75
2023/04/09 01:16:36;;;;;;;35.50;24.67;;;;;;;8.19;100.00;102484.75;1036780;28;20304;-74
2023/04/09 01:17:23;;;;;;;40.65;26.23;;;;;;;8.18;100.00;102482.25;1028500;28;20421;-74
2023/04/09 01:18:05;;;;;;;36.42;25.30;;;;;;;8.16;100.00;102479.75;1029106;28;20340;-75
2023/04/09 01:18:58;;;;;;;37.97;25.88;;;;;;;8.15;100.00;102478.09;1035176;28;20371;-75
2023/04/09 01:19:55;;;;;;;37.80;24.98;;;;;;;8.03;100.00;102484.69;1035531;28;20443;-74
2023/04/09 01:20:40;;;;;;;33.72;22.70;;;;;;;8.08;100.00;102482.38;1039119;28;20304;-75
2023/04/09 01:21:15;;;;;;;39.80;24.83;;;;;;;8.06;100.00;102482.53;1036013;28;20324;-75
2023/04/09 01:21:47;;;;;;;36.13;23.65;;;;;;;8.00;100.00;102479.69;1035276;28;20336;-75
2023/04/09 01:22:36;;;;;;;42.72;24.20;;;;;;;8.05;100.00;102478.22;1033743;28;20331;-75
2023/04/09 01:23:09;;;;;;;35.65;24.80;;;;;;;8.13;100.00;102488.03;1033726;28;20675;-75
2023/04/09 01:23:51;;;;;;;34.65;23.08;;;;;;;8.09;100.00;102481.38;1038452;28;20308;-75
2023/04/09 01:24:52;;;;;;;38.22;25.00;;;;;;;8.14;100.00;102479.09;1035462;28;20388;-75
2023/04/09 01:25:39;;;;;;;38.97;22.55;;;;;;;8.08;100.00;102482.38;1030520;28;20306;-75
2023/04/09 01:26:45;;;;;;;34.53;23.13;;;;;;;8.30;100.00;102475.66;1036279;28;20341;-75
2023/04/09 01:27:17;;;;;;;31.85;22.60;;;;;;;8.26;100.00;102479.66;1041124;28;20343;-75
2023/04/09 01:28:15;;;;;;;36.50;22.80;;;;;;;8.11;100.00;102476.75;1044738;28;20559;-75
2023/04/09 01:28:53;;;;;;;35.25;22.88;;;;;;;8.16;100.00;102485.06;1039414;28;20304;-75
2023/04/09 01:29:35;;;;;;;36.30;23.42;;;;;;;8.16;100.00;102478.94;1039516;28;20049;-74
2023/04/09 01:30:06;;;;;;;;;;;;;;;8.26;100.00;102485.78;1045218;28;20296;-74
2023/04/09 01:30:39;;;;;;;33.53;24.25;;;;;;;8.30;100.00;102476.50;1039557;28;19921;-75
2023/04/09 01:31:19;;;;;;;31.23;22.13;;;;;;;8.25;100.00;102477.97;1033656;28;20309;-75
2023/04/09 01:31:51;;;;;;;35.13;22.77;;;;;;;8.20;100.00;102481.09;1033154;28;20309;-76
2023/04/09 01:32:24;;;;;;;34.30;23.73;;;;;;;8.40;100.00;102480.88;1038552;28;20320;-75
2023/04/09 01:32:56;;;;;;;39.33;23.77;;;;;;;8.49;100.00;102479.88;1047599;28;20302;-74
2023/04/09 01:33:29;;;;;;;33.17;21.90;;;;;;;8.46;100.00;102475.72;1046143;28;20943;-74
2023/04/09 01:34:05;;;;;;;34.17;22.40;;;;;;;8.46;100.00;102481.03;1046260;28;20378;-74
2023/04/09 01:34:37;;;;;;;34.35;23.00;;;;;;;8.49;100.00;102479.88;1042703;28;20299;-74
2023/04/09 01:35:09;;;;;;;32.58;21.55;;;;;;;8.45;100.00;102478.56;1032438;28;20332;-74
2023/04/09 01:35:42;;;;;;;33.60;22.75;;;;;;;8.30;100.00;102479.16;1027408;28;20313;-74
2023/04/09 01:36:14;;;;;;;34.60;22.52;;;;;;;8.15;100.00;102478.09;1031927;28;20304;-75
2023/04/09 01:36:52;;;;;;;30.63;19.95;;;;;;;8.23;100.00;102470.19;1037431;28;20315;-74
2023/04/09 01:37:25;;;;;;;31.60;21.02;;;;;;;8.07;100.00;102480.72;1043993;28;20685;-75
2023/04/09 01:37:57;;;;;;;29.98;23.45;;;;;;;8.14;100.00;102479.09;1035096;28;20305;-76
2023/04/09 01:38:28;;;;;;;36.58;22.35;;;;;;;8.16;100.00;102479.75;1030467;28;20306;-75
2023/04/09 01:39:01;;;;;;;32.65;21.88;;;;;;;8.15;100.00;102472.78;1027764;28;20317;-75
2023/04/09 01:39:32;;;;;;;29.75;20.13;;;;;;;8.19;100.00;102474.13;1032324;28;20305;-75
2023/04/09 01:40:06;;;;;;;28.77;20.48;;;;;;;8.08;100.00;102482.38;1040371;28;20729;-76
2023/04/09 01:40:37;;;;;;;31.25;20.10;;;;;;;8.13;100.00;102476.59;1044139;28;20300;-75
2023/04/09 01:41:13;;;;;;;32.05;20.73;;;;;;;8.04;100.00;102475.72;1043028;28;20366;-75
2023/04/09 01:41:45;;;;;;;28.75;19.88;;;;;;;8.08;100.00;102471.78;1036173;28;20392;-75
2023/04/09 01:42:17;;;;;;;32.90;22.50;;;;;;;8.06;100.00;102479.06;1035305;28;20679;-74
2023/04/09 01:42:51;;;;;;;29.98;21.55;;;;;;;8.13;100.00;102477.44;1039217;28;20734;-74
2023/04/09 01:43:23;;;;;;;29.77;20.73;;;;;;;8.13;100.00;102482.72;1037299;28;20311;-74
2023/04/09 01:43:55;;;;;;;29.80;21.52;;;;;;;8.08;100.00;102471.78;1037914;28;20790;-75
2023/04/09 01:44:27;;;;;;;34.85;20.83;;;;;;;8.13;100.00;102474.78;1032420;28;20352;-75
2023/04/09 01:44:59;;;;;;;32.97;21.58;;;;;;;8.12;100.00;102470.44;1031559;28;20300;-75
2023/04/09 01:45:31;;;;;;;30.02;20.10;;;;;;;8.12;100.00;102475.75;1027595;28;20329;-74
2023/04/09 01:46:03;;;;;;;33.97;21.65;;;;;;;8.08;100.00;102471.78;1031869;28;20388;-74
2023/04/09 01:46:35;;;;;;;31.08;21.55;;;;;;;8.01;100.00;102476.06;1034942;28;20322;-75
2023/04/09 01:47:08;;;;;;;29.85;20.40;;;;;;;8.04;100.00;102470.44;1034072;28;20762;-75
2023/04/09 01:47:40;;;;;;;28.98;20.33;;;;;;;8.06;100.00;102479.88;1032784;28;20302;-75
2023/04/09 01:48:12;;;;;;;33.00;21.45;;;;;;;8.07;100.00;102472.75;1031868;28;20309;-75
2023/04/09 01:48:45;;;;;;;29.50;20.30;;;;;;;8.05;100.00;102478.22;1035239;28;20313;-75
2023/04/09 01:49:17;;;;;;;34.00;21.70;;;;;;;8.03;100.00;102474.06;1030707;28;20327;-76
2023/04/09 01:49:49;;;;;;;33.10;20.70;;;;;;;8.11;100.00;102476.75;1032606;28;20309;-75
2023/04/09 01:50:21;;;;;;;30.73;21.85;;;;;;;8.11;100.00;102470.63;1043394;28;20313;-75
2023/04/09 01:50:53;;;;;;;29.55;20.92;;;;;;;8.34;100.00;102475.22;1040211;28;20405;-75
2023/04/09 01:51:26;;;;;;;29.65;22.08;;;;;;;8.42;100.00;102473.56;1031890;28;20398;-75
2023/04/09 01:51:57;;;;;;;33.55;20.48;;;;;;;8.46;100.00;102470.41;1033110;28;20297;-75
2023/04/09 01:52:29;;;;;;;30.48;20.75;;;;;;;8.31;100.00;102475.50;1034626;28;20293;-75
2023/04/09 01:53:01;;;;;;;30.75;20.35;;;;;;;8.25;100.00;102480.63;1040035;28;20303;-75
2023/04/09 01:53:33;;;;;;;30.27;21.58;;;;;;;8.22;100.00;102473.00;1034149;28;20316;-76
2023/04/09 01:54:04;;;;;;;31.05;21.50;;;;;;;8.27;100.00;102478.66;1031203;28;20305;-75
2023/04/09 01:54:36;;;;;;;28.63;19.20;;;;;;;8.25;100.00;102478.81;1030543;28;20306;-75
2023/04/09 01:55:07;;;;;;;31.77;21.52;;;;;;;8.25;100.00;102481.47;1036558;28;20379;-75
2023/04/09 01:55:39;;;;;;;27.83;20.40;;;;;;;8.37;100.00;102474.06;1036107;28;20304;-75
2023/04/09 01:56:11;;;;;;;29.98;21.58;;;;;;;8.49;100.00;102474.56;1038613;28;20315;-75
2023/04/09 01:56:44;;;;;;;36.22;21.48;;;;;;;8.55;100.00;102479.25;1034756;28;20319;-75
2023/04/09 01:57:16;;;;;;;30.40;20.83;;;;;;;8.54;100.00;102477.59;1030100;28;20308;-74
2023/04/09 01:57:47;;;;;;;31.83;21.00;;;;;;;8.55;100.00;102469.47;1027579;28;20819;-75
2023/04/09 01:58:19;;;;;;;36.13;23.05;;;;;;;8.52;100.00;102468.97;1034853;28;20799;-74
2023/04/09 01:58:51;;;;;;;32.60;22.45;;;;;;;8.56;100.00;102470.31;1031185;28;20666;-75
2023/04/09 01:59:23;;;;;;;33.47;23.33;;;;;;;8.38;100.00;102478.38;1040545;28;20315;-75
2023/04/09 01:59:55;;;;;;;37.67;23.85;;;;;;;8.38;100.00;102473.06;1043367;28;20338;-74
2023/04/09 02:00:35;;;;;;;35.67;21.92;;;;;;;8.51;100.00;102469.97;1042093;28;20295;-75
2023/04/09 02:01:23;;;;;;;26.10;20.08;;;;;;;8.49;100.00;102469.25;1039673;28;20288;-74
2023/04/09 02:02:08;;;;;;;30.58;20.85;;;;;;;8.45;100.00;102470.59;1034773;28;20042;-74
2023/04/09 02:02:46;;;;;;;30.77;21.17;;;;;;;8.43;100.00;102477.88;1036204;28;20301;-75
2023/04/09 02:03:25;;;;;;;33.70;21.85;;;;;;;8.46;100.00;102475.72;1035823;28;20290;-75
2023/04/09 02:04:00;;;;;;;35.17;22.15;;;;;;;8.41;100.00;102477.22;1033759;28;20309;-75
2023/04/09 02:04:33;;;;;;;32.95;20.35;;;;;;;8.34;100.00;102471.72;1036209;28;20321;-74
2023/04/09 02:05:06;;;;;;;28.90;20.45;;;;;;;8.33;100.00;102470.03;1036990;28;20667;-75
2023/04/09 02:05:44;;;;;;;35.45;20.75;;;;;;;8.29;100.00;102469.53;1037938;28;20358;-74
2023/04/09 02:06:38;;;;;;;36.55;22.63;;;;;;;8.30;100.00;102476.50;1033220;28;20319;-75
2023/04/09 02:07:17;;;;;;;29.52;19.35;;;;;;;8.31;100.00;102472.03;1035058;28;20332;-75
2023/04/09 02:07:53;;;;;;;32.30;20.60;;;;;;;8.30;100.00;102471.19;1034856;28;20351;-75
2023/04/09 02:08:27;;;;;;;29.15;19.42;;;;;;;8.23;100.00;102474.66;1033758;28;20337;-75
2023/04/09 02:09:00;;;;;;;33.97;20.25;;;;;;;8.24;100.00;102477.16;1031957;28;20294;-75
2023/04/09 02:09:34;;;;;;;31.33;21.00;;;;;;;8.13;100.00;102477.44;1036381;28;20297;-75
2023/04/09 02:10:09;;;;;;;30.67;20.48;;;;;;;8.11;100.00;102474.09;1044647;28;20330;-75
2023/04/09 02:10:42;;;;;;;30.95;21.90;;;;;;;8.20;100.00;102475.78;1046549;28;20646;-74
2023/04/09 02:11:14;;;;;;;31.98;21.23;;;;;;;8.10;100.00;102475.09;1039193;28;20892;-75
2023/04/09 02:11:47;;;;;;;33.35;21.02;;;;;;;8.03;100.00;102468.78;1037284;28;20308;-76
2023/04/09 02:12:19;;;;;;;33.33;22.73;;;;;;;8.03;100.00;102469.59;1044269;28;20346;-75
2023/04/09 02:12:52;;;;;;;31.05;21.63;;;;;;;8.02;100.00;102472.41;1045174;28;20431;-75
2023/04/09 02:13:25;;;;;;;32.72;20.83;;;;;;;8.05;100.00;102470.28;1041799;28;20308;-74
2023/04/09 02:14:00;;;;;;;32.58;20.77;;;;;;;8.07;100.00;102475.41;1043408;28;20287;-75
2023/04/09 02:14:32;;;;;;;34.45;22.00;;;;;;;8.10;100.00;102475.09;1035229;28;20301;-75
2023/04/09 02:15:05;;;;;;;32.55;21.35;;;;;;;8.03;100.00;102466.94;1037558;28;20297;-75
2023/04/09 02:15:37;;;;;;;30.33;21.45;;;;;;;8.01;100.00;102473.41;1043179;28;20816;-74
2023/04/09 02:16:10;;;;;;;32.80;21.92;;;;;;;8.02;100.00;102472.41;1042105;28;20389;-74
2023/04/09 02:16:42;;;;;;;34.10;20.50;;;;;;;8.03;100.00;102468.78;1039991;28;20299;-76
2023/04/09 02:17:14;;;;;;;35.08;21.30;;;;;;;8.04;100.00;102475.72;1030669;28;20716;-74
2023/04/09 02:17:46;;;;;;;27.85;19.88;;;;;;;8.01;100.00;102470.75;1030280;28;20310;-75
2023/04/09 02:18:26;;;;;;;31.52;19.55;;;;;;;8.06;100.00;102473.75;1035959;28;20711;-74
2023/04/09 02:19:00;;;;;;;32.38;20.05;;;;;;;8.06;100.00;102465.78;1042705;28;20734;-75
2023/04/09 02:19:44;;;;;;;34.25;23.00;;;;;;;8.22;100.00;102468.53;1043548;28;20315;-75
2023/04/09 02:20:17;;;;;;;29.27;20.00;;;;;;;8.21;100.00;102472.13;1043600;28;20295;-74
2023/04/09 02:20:51;;;;;;;30.23;19.48;;;;;;;8.18;100.00;102472.47;1039027;28;20305;-74
2023/04/09 02:21:23;;;;;;;33.00;21.02;;;;;;;8.09;100.00;102465.47;1034908;28;20316;-75
2023/04/09 02:21:54;;;;;;;29.65;20.80;;;;;;;8.13;100.00;102469.47;1035002;28;20312;-75
2023/04/09 02:22:26;;;;;;;29.70;21.45;;;;;;;8.21;100.00;102471.31;1032746;28;20308;-75
2023/04/09 02:22:58;;;;;;;28.85;20.10;;;;;;;8.12;100.00;102473.09;1039701;28;20300;-75
2023/04/09 02:23:32;;;;;;;31.50;21.42;;;;;;;8.10;100.00;102464.47;1039192;28;20415;-74
2023/04/09 02:24:03;;;;;;;30.13;22.45;;;;;;;8.03;100.00;102466.94;1042864;28;20969;-75
2023/04/09 02:24:35;;;;;;;29.27;20.50;;;;;;;8.01;100.00;102465.44;1033448;28;20304;-75
2023/04/09 02:25:07;;;;;;;29.27;19.05;;;;;;;8.02;100.00;102461.81;1035931;28;20312;-75
2023/04/09 02:25:39;;;;;;;30.08;21.00;;;;;;;8.05;100.00;102467.63;1034678;28;20318;-75
2023/04/09 02:26:10;;;;;;;34.30;21.30;;;;;;;8.05;100.00;102466.78;1033467;28;20293;-75
2023/04/09 02:26:42;;;;;;;28.95;20.05;;;;;;;8.13;100.00;102464.16;1044532;28;20303;-76
2023/04/09 02:27:13;;;;;;;31.05;20.42;;;;;;;8.27;100.00;102460.91;1047302;28;20298;-75
2023/04/09 02:27:45;;;;;;;25.40;19.15;;;;;;;8.34;100.00;102461.94;1045692;28;20282;-75
2023/04/09 02:28:17;;;;;;;30.92;20.35;;;;;;;8.42;100.00;102468.25;1045689;28;20329;-75
2023/04/09 02:28:49;;;;;;;30.73;20.58;;;;;;;8.21;100.00;102461.53;1039171;28;20347;-75
2023/04/09 02:29:21;;;;;;;26.30;18.55;;;;;;;8.36;100.00;102462.59;1037904;28;20293;-75
2023/04/09 02:29:53;;;;;;;31.25;19.48;;;;;;;8.24;100.00;102452.44;1032922;28;20305;-75
2023/04/09 02:30:24;;;;;;;25.80;18.92;;;;;;;8.23;100.00;102456.06;1035766;28;20718;-74
2023/04/09 02:30:56;;;;;;;25.90;17.90;;;;;;;8.15;100.00;102464.81;1036998;28;20328;-75
2023/04/09 02:31:28;;;;;;;25.70;18.73;;;;;;;8.16;100.00;102455.03;1040165;28;20295;-75
2023/04/09 02:31:59;;;;;;;27.02;18.50;;;;;;;8.19;100.00;102452.06;1047588;28;20360;-75
2023/04/09 02:32:31;;;;;;;30.90;19.95;;;;;;;8.17;100.00;102454.88;1039920;28;20384;-75
2023/04/09 02:33:02;;;;;;;31.15;20.27;;;;;;;8.14;100.00;102452.53;1035382;28;20301;-75
2023/04/09 02:33:34;;;;;;;25.85;18.50;;;;;;;8.13;100.00;102461.50;1035297;28;20316;-75
2023/04/09 02:34:06;;;;;;;28.92;19.20;;;;;;;8.39;100.00;102452.66;1035885;28;20351;-75
2023/04/09 02:34:37;;;;;;;28.65;20.42;;;;;;;8.47;100.00;102452.66;1047011;28;20307;-75
2023/04/09 02:35:09;;;;;;;24.73;19.55;;;;;;;8.37;100.00;102455.47;1043737;28;20318;-75
2023/04/09 02:35:41;;;;;;;30.83;19.70;;;;;;;8.45;100.00;102452.00;1039101;28;20315;-74
2023/04/09 02:36:12;;;;;;;28.13;19.83;;;;;;;8.32;100.00;102453.28;1041937;28;20800;-74